sensor_id;sensor_type;location;lat;lon;timestamp;P1;durP1;ratioP1;P2;durP2;ratioP2
26181;SDS011;13927;51.534;11.866;2022-09-09T00:06:28;2.75;;;2.13;;
26181;SDS011;13927;51.534;11.866;2022-09-09T00:09:08;6.90;;;2.70;;
26181;SDS011;13927;51.534;11.866;2022-09-09T00:14:42;3.70;;;1.70;;
26181;SDS011;13927;51.534;11.866;2022-09-09T00:20:01;4.90;;;1.90;;
26181;SDS011;13927;51.534;11.866;2022-09-09T00:22:38;5.68;;;2.53;;
26181;SDS011;13927;51.534;11.866;2022-09-09T00:25:37;4.38;;;2.22;;
26181;SDS011;13927;51.534;11.866;2022-09-09T00:28:19;4.38;;;2.22;;
26181;SDS011;13927;51.534;11.866;2022-09-09T00:30:50;4.53;;;2.53;;
26181;SDS011;13927;51.534;11.866;2022-09-09T00:33:19;4.47;;;2.30;;
26181;SDS011;13927;51.534;11.866;2022-09-09T00:35:49;3.40;;;2.03;;
26181;SDS011;13927;51.534;11.866;2022-09-09T00:38:33;6.85;;;2.00;;
26181;SDS011;13927;51.534;11.866;2022-09-09T00:43:41;5.25;;;2.03;;
26181;SDS011;13927;51.534;11.866;2022-09-09T00:58:19;3.63;;;1.80;;
26181;SDS011;13927;51.534;11.866;2022-09-09T01:00:50;6.65;;;2.50;;
26181;SDS011;13927;51.534;11.866;2022-09-09T01:03:37;2.40;;;1.80;;
26181;SDS011;13927;51.534;11.866;2022-09-09T01:09:01;4.20;;;1.80;;
26181;SDS011;13927;51.534;11.866;2022-09-09T01:11:55;3.25;;;1.92;;
26181;SDS011;13927;51.534;11.866;2022-09-09T01:15:04;4.88;;;2.10;;
26181;SDS011;13927;51.534;11.866;2022-09-09T01:18:04;4.22;;;1.70;;
26181;SDS011;13927;51.534;11.866;2022-09-09T01:21:01;3.65;;;1.90;;
26181;SDS011;13927;51.534;11.866;2022-09-09T01:26:41;3.53;;;1.90;;
26181;SDS011;13927;51.534;11.866;2022-09-09T01:29:11;3.47;;;1.88;;
26181;SDS011;13927;51.534;11.866;2022-09-09T01:31:51;4.80;;;1.80;;
26181;SDS011;13927;51.534;11.866;2022-09-09T01:34:19;3.90;;;2.20;;
26181;SDS011;13927;51.534;11.866;2022-09-09T01:36:58;3.17;;;1.60;;
26181;SDS011;13927;51.534;11.866;2022-09-09T01:39:37;2.03;;;1.60;;
26181;SDS011;13927;51.534;11.866;2022-09-09T01:42:09;4.60;;;2.15;;
26181;SDS011;13927;51.534;11.866;2022-09-09T01:44:37;3.28;;;1.70;;
26181;SDS011;13927;51.534;11.866;2022-09-09T01:47:04;3.97;;;1.60;;
26181;SDS011;13927;51.534;11.866;2022-09-09T01:49:31;4.95;;;2.00;;
26181;SDS011;13927;51.534;11.866;2022-09-09T01:51:58;3.63;;;1.63;;
26181;SDS011;13927;51.534;11.866;2022-09-09T01:54:28;4.63;;;2.03;;
26181;SDS011;13927;51.534;11.866;2022-09-09T02:08:10;5.18;;;2.30;;
26181;SDS011;13927;51.534;11.866;2022-09-09T02:10:51;7.65;;;2.38;;
26181;SDS011;13927;51.534;11.866;2022-09-09T02:13:32;4.95;;;2.30;;
26181;SDS011;13927;51.534;11.866;2022-09-09T02:16:11;5.53;;;2.10;;
26181;SDS011;13927;51.534;11.866;2022-09-09T02:21:33;2.95;;;1.92;;
26181;SDS011;13927;51.534;11.866;2022-09-09T02:24:02;3.15;;;2.50;;
26181;SDS011;13927;51.534;11.866;2022-09-09T02:26:34;4.18;;;2.80;;
26181;SDS011;13927;51.534;11.866;2022-09-09T02:29:13;3.45;;;2.00;;
26181;SDS011;13927;51.534;11.866;2022-09-09T02:31:59;4.00;;;2.65;;
26181;SDS011;13927;51.534;11.866;2022-09-09T02:34:40;5.57;;;2.25;;
26181;SDS011;13927;51.534;11.866;2022-09-09T02:37:21;5.97;;;2.00;;
26181;SDS011;13927;51.534;11.866;2022-09-09T02:42:41;3.28;;;1.73;;
26181;SDS011;13927;51.534;11.866;2022-09-09T02:45:11;3.15;;;1.90;;
26181;SDS011;13927;51.534;11.866;2022-09-09T02:47:48;2.72;;;1.80;;
26181;SDS011;13927;51.534;11.866;2022-09-09T02:53:32;4.20;;;2.13;;
26181;SDS011;13927;51.534;11.866;2022-09-09T02:56:12;3.17;;;1.75;;
26181;SDS011;13927;51.534;11.866;2022-09-09T02:58:45;3.88;;;1.80;;
26181;SDS011;13927;51.534;11.866;2022-09-09T03:01:11;4.35;;;2.13;;
26181;SDS011;13927;51.534;11.866;2022-09-09T03:03:37;4.97;;;2.08;;
26181;SDS011;13927;51.534;11.866;2022-09-09T03:06:06;3.80;;;1.92;;
26181;SDS011;13927;51.534;11.866;2022-09-09T03:08:32;6.95;;;2.20;;
26181;SDS011;13927;51.534;11.866;2022-09-09T03:10:58;4.82;;;1.90;;
26181;SDS011;13927;51.534;11.866;2022-09-09T03:13:26;5.20;;;2.38;;
26181;SDS011;13927;51.534;11.866;2022-09-09T03:15:52;6.00;;;2.25;;
26181;SDS011;13927;51.534;11.866;2022-09-09T03:18:18;4.45;;;1.90;;
26181;SDS011;13927;51.534;11.866;2022-09-09T03:20:43;7.03;;;2.30;;
26181;SDS011;13927;51.534;11.866;2022-09-09T03:23:14;5.10;;;2.00;;
26181;SDS011;13927;51.534;11.866;2022-09-09T03:25:45;3.85;;;2.80;;
26181;SDS011;13927;51.534;11.866;2022-09-09T03:30:39;3.85;;;2.20;;
26181;SDS011;13927;51.534;11.866;2022-09-09T03:35:59;6.80;;;2.15;;
26181;SDS011;13927;51.534;11.866;2022-09-09T03:38:25;5.10;;;2.20;;
26181;SDS011;13927;51.534;11.866;2022-09-09T03:40:52;7.07;;;3.00;;
26181;SDS011;13927;51.534;11.866;2022-09-09T03:43:21;2.95;;;2.20;;
26181;SDS011;13927;51.534;11.866;2022-09-09T03:45:48;4.07;;;2.45;;
26181;SDS011;13927;51.534;11.866;2022-09-09T03:48:15;4.70;;;1.83;;
26181;SDS011;13927;51.534;11.866;2022-09-09T03:50:45;4.88;;;2.17;;
26181;SDS011;13927;51.534;11.866;2022-09-09T03:53:12;3.42;;;2.20;;
26181;SDS011;13927;51.534;11.866;2022-09-09T03:55:43;6.40;;;2.05;;
26181;SDS011;13927;51.534;11.866;2022-09-09T03:58:13;3.58;;;2.55;;
26181;SDS011;13927;51.534;11.866;2022-09-09T04:00:40;3.92;;;2.63;;
26181;SDS011;13927;51.534;11.866;2022-09-09T04:03:08;4.53;;;2.33;;
26181;SDS011;13927;51.534;11.866;2022-09-09T04:05:35;6.25;;;2.50;;
26181;SDS011;13927;51.534;11.866;2022-09-09T04:08:04;4.05;;;2.22;;
26181;SDS011;13927;51.534;11.866;2022-09-09T04:10:33;6.32;;;2.83;;
26181;SDS011;13927;51.534;11.866;2022-09-09T04:13:02;3.47;;;2.05;;
26181;SDS011;13927;51.534;11.866;2022-09-09T04:15:30;7.47;;;2.78;;
26181;SDS011;13927;51.534;11.866;2022-09-09T04:17:56;4.35;;;2.58;;
26181;SDS011;13927;51.534;11.866;2022-09-09T04:20:22;5.03;;;2.45;;
26181;SDS011;13927;51.534;11.866;2022-09-09T04:22:48;4.10;;;2.65;;
26181;SDS011;13927;51.534;11.866;2022-09-09T04:25:14;4.90;;;2.40;;
26181;SDS011;13927;51.534;11.866;2022-09-09T04:27:39;4.50;;;2.53;;
26181;SDS011;13927;51.534;11.866;2022-09-09T04:30:05;5.32;;;2.83;;
26181;SDS011;13927;51.534;11.866;2022-09-09T04:32:33;4.78;;;2.50;;
26181;SDS011;13927;51.534;11.866;2022-09-09T04:34:58;5.07;;;2.72;;
26181;SDS011;13927;51.534;11.866;2022-09-09T04:37:24;3.85;;;2.25;;
26181;SDS011;13927;51.534;11.866;2022-09-09T04:39:50;4.70;;;2.42;;
26181;SDS011;13927;51.534;11.866;2022-09-09T04:42:16;3.92;;;2.13;;
26181;SDS011;13927;51.534;11.866;2022-09-09T04:44:44;4.80;;;2.20;;
26181;SDS011;13927;51.534;11.866;2022-09-09T04:47:09;3.53;;;2.20;;
26181;SDS011;13927;51.534;11.866;2022-09-09T04:49:35;5.13;;;2.17;;
26181;SDS011;13927;51.534;11.866;2022-09-09T04:52:04;4.85;;;2.47;;
26181;SDS011;13927;51.534;11.866;2022-09-09T04:54:30;4.32;;;2.20;;
26181;SDS011;13927;51.534;11.866;2022-09-09T04:56:55;2.45;;;2.25;;
26181;SDS011;13927;51.534;11.866;2022-09-09T04:59:21;5.60;;;2.63;;
26181;SDS011;13927;51.534;11.866;2022-09-09T05:01:47;3.88;;;2.17;;
26181;SDS011;13927;51.534;11.866;2022-09-09T05:04:15;3.75;;;2.63;;
26181;SDS011;13927;51.534;11.866;2022-09-09T05:06:41;5.22;;;2.47;;
26181;SDS011;13927;51.534;11.866;2022-09-09T05:09:07;3.92;;;2.58;;
26181;SDS011;13927;51.534;11.866;2022-09-09T05:11:33;4.70;;;2.50;;
26181;SDS011;13927;51.534;11.866;2022-09-09T05:14:03;5.00;;;2.15;;
26181;SDS011;13927;51.534;11.866;2022-09-09T05:16:29;5.53;;;2.80;;
26181;SDS011;13927;51.534;11.866;2022-09-09T05:18:56;7.28;;;2.88;;
26181;SDS011;13927;51.534;11.866;2022-09-09T05:21:22;4.50;;;2.67;;
26181;SDS011;13927;51.534;11.866;2022-09-09T05:23:51;4.88;;;2.75;;
26181;SDS011;13927;51.534;11.866;2022-09-09T05:26:18;7.43;;;3.20;;
26181;SDS011;13927;51.534;11.866;2022-09-09T05:28:46;5.65;;;3.35;;
26181;SDS011;13927;51.534;11.866;2022-09-09T05:31:17;6.18;;;3.20;;
26181;SDS011;13927;51.534;11.866;2022-09-09T05:33:44;5.40;;;3.53;;
26181;SDS011;13927;51.534;11.866;2022-09-09T05:36:12;4.65;;;2.72;;
26181;SDS011;13927;51.534;11.866;2022-09-09T05:38:50;6.97;;;3.10;;
26181;SDS011;13927;51.534;11.866;2022-09-09T05:41:18;9.75;;;3.40;;
26181;SDS011;13927;51.534;11.866;2022-09-09T05:43:45;8.05;;;3.25;;
26181;SDS011;13927;51.534;11.866;2022-09-09T05:46:16;4.22;;;2.75;;
26181;SDS011;13927;51.534;11.866;2022-09-09T05:48:46;6.47;;;3.27;;
26181;SDS011;13927;51.534;11.866;2022-09-09T05:51:16;6.00;;;3.67;;
26181;SDS011;13927;51.534;11.866;2022-09-09T05:53:50;6.50;;;3.30;;
26181;SDS011;13927;51.534;11.866;2022-09-09T05:56:17;8.02;;;3.70;;
26181;SDS011;13927;51.534;11.866;2022-09-09T05:58:49;6.30;;;3.80;;
26181;SDS011;13927;51.534;11.866;2022-09-09T06:01:16;9.02;;;3.50;;
26181;SDS011;13927;51.534;11.866;2022-09-09T06:03:59;6.10;;;2.95;;
26181;SDS011;13927;51.534;11.866;2022-09-09T06:06:26;5.07;;;3.05;;
26181;SDS011;13927;51.534;11.866;2022-09-09T06:08:56;5.85;;;2.70;;
26181;SDS011;13927;51.534;11.866;2022-09-09T06:11:26;5.07;;;2.50;;
26181;SDS011;13927;51.534;11.866;2022-09-09T06:13:56;8.23;;;2.95;;
26181;SDS011;13927;51.534;11.866;2022-09-09T06:16:23;5.00;;;2.58;;
26181;SDS011;13927;51.534;11.866;2022-09-09T06:18:52;4.45;;;2.63;;
26181;SDS011;13927;51.534;11.866;2022-09-09T06:21:29;5.00;;;2.90;;
26181;SDS011;13927;51.534;11.866;2022-09-09T06:23:57;5.50;;;2.65;;
26181;SDS011;13927;51.534;11.866;2022-09-09T06:26:25;5.55;;;2.50;;
26181;SDS011;13927;51.534;11.866;2022-09-09T06:28:55;5.15;;;2.33;;
26181;SDS011;13927;51.534;11.866;2022-09-09T06:31:24;4.68;;;1.90;;
26181;SDS011;13927;51.534;11.866;2022-09-09T06:33:55;3.35;;;2.15;;
26181;SDS011;13927;51.534;11.866;2022-09-09T06:36:41;4.07;;;2.42;;
26181;SDS011;13927;51.534;11.866;2022-09-09T06:39:07;6.18;;;2.17;;
26181;SDS011;13927;51.534;11.866;2022-09-09T06:41:36;2.75;;;1.58;;
26181;SDS011;13927;51.534;11.866;2022-09-09T06:44:03;3.58;;;1.77;;
26181;SDS011;13927;51.534;11.866;2022-09-09T06:46:30;3.47;;;1.70;;
26181;SDS011;13927;51.534;11.866;2022-09-09T06:48:59;5.40;;;1.65;;
26181;SDS011;13927;51.534;11.866;2022-09-09T06:51:28;3.22;;;1.30;;
26181;SDS011;13927;51.534;11.866;2022-09-09T06:53:56;4.10;;;1.40;;
26181;SDS011;13927;51.534;11.866;2022-09-09T06:59:10;2.88;;;1.70;;
26181;SDS011;13927;51.534;11.866;2022-09-09T07:01:40;3.35;;;1.30;;
26181;SDS011;13927;51.534;11.866;2022-09-09T07:41:43;3.40;;;1.25;;
26181;SDS011;13927;51.534;11.866;2022-09-09T07:44:13;3.15;;;1.42;;
26181;SDS011;13927;51.534;11.866;2022-09-09T07:46:41;4.25;;;1.92;;
26181;SDS011;13927;51.534;11.866;2022-09-09T07:49:07;3.33;;;1.20;;
26181;SDS011;13927;51.534;11.866;2022-09-09T07:51:35;4.55;;;1.08;;
26181;SDS011;13927;51.534;11.866;2022-09-09T07:54:08;4.65;;;1.50;;
26181;SDS011;13927;51.534;11.866;2022-09-09T07:56:38;5.40;;;1.35;;
26181;SDS011;13927;51.534;11.866;2022-09-09T07:59:10;2.95;;;1.20;;
26181;SDS011;13927;51.534;11.866;2022-09-09T08:01:38;2.00;;;1.10;;
26181;SDS011;13927;51.534;11.866;2022-09-09T08:04:09;5.25;;;1.50;;
26181;SDS011;13927;51.534;11.866;2022-09-09T08:06:40;4.35;;;1.83;;
26181;SDS011;13927;51.534;11.866;2022-09-09T08:09:31;3.45;;;1.30;;
26181;SDS011;13927;51.534;11.866;2022-09-09T08:11:58;2.75;;;1.25;;
26181;SDS011;13927;51.534;11.866;2022-09-09T08:31:37;3.03;;;1.27;;
26181;SDS011;13927;51.534;11.866;2022-09-09T08:34:06;5.05;;;1.20;;
26181;SDS011;13927;51.534;11.866;2022-09-09T08:36:34;3.30;;;1.17;;
26181;SDS011;13927;51.534;11.866;2022-09-09T08:39:04;3.33;;;1.02;;
26181;SDS011;13927;51.534;11.866;2022-09-09T08:47:41;3.15;;;1.63;;
26181;SDS011;13927;51.534;11.866;2022-09-09T08:55:52;3.80;;;1.40;;
26181;SDS011;13927;51.534;11.866;2022-09-09T08:58:34;2.95;;;1.40;;
26181;SDS011;13927;51.534;11.866;2022-09-09T09:07:33;4.90;;;1.50;;
26181;SDS011;13927;51.534;11.866;2022-09-09T09:10:33;5.03;;;1.30;;
26181;SDS011;13927;51.534;11.866;2022-09-09T09:13:35;4.38;;;1.75;;
26181;SDS011;13927;51.534;11.866;2022-09-09T09:19:24;3.78;;;1.23;;
26181;SDS011;13927;51.534;11.866;2022-09-09T09:21:54;4.03;;;0.95;;
26181;SDS011;13927;51.534;11.866;2022-09-09T09:24:51;6.28;;;1.10;;
26181;SDS011;13927;51.534;11.866;2022-09-09T09:30:00;5.18;;;1.75;;
26181;SDS011;13927;51.534;11.866;2022-09-09T09:32:38;3.67;;;1.33;;
26181;SDS011;13927;51.534;11.866;2022-09-09T09:35:12;2.42;;;1.42;;
26181;SDS011;13927;51.534;11.866;2022-09-09T09:37:39;7.38;;;1.60;;
26181;SDS011;13927;51.534;11.866;2022-09-09T09:40:12;5.78;;;1.10;;
26181;SDS011;13927;51.534;11.866;2022-09-09T09:45:41;3.45;;;1.00;;
26181;SDS011;13927;51.534;11.866;2022-09-09T09:48:11;6.07;;;1.55;;
26181;SDS011;13927;51.534;11.866;2022-09-09T09:53:37;4.18;;;1.40;;
26181;SDS011;13927;51.534;11.866;2022-09-09T09:56:05;4.47;;;1.30;;
26181;SDS011;13927;51.534;11.866;2022-09-09T10:01:26;5.18;;;1.23;;
26181;SDS011;13927;51.534;11.866;2022-09-09T10:03:58;4.82;;;1.25;;
26181;SDS011;13927;51.534;11.866;2022-09-09T10:06:41;3.33;;;1.15;;
26181;SDS011;13927;51.534;11.866;2022-09-09T10:09:23;5.03;;;1.60;;
26181;SDS011;13927;51.534;11.866;2022-09-09T10:12:01;4.50;;;1.35;;
26181;SDS011;13927;51.534;11.866;2022-09-09T10:15:09;3.30;;;1.20;;
26181;SDS011;13927;51.534;11.866;2022-09-09T10:21:20;3.60;;;1.08;;
26181;SDS011;13927;51.534;11.866;2022-09-09T10:32:53;3.20;;;1.25;;
26181;SDS011;13927;51.534;11.866;2022-09-09T10:36:21;4.30;;;1.00;;
26181;SDS011;13927;51.534;11.866;2022-09-09T10:38:46;2.03;;;0.90;;
26181;SDS011;13927;51.534;11.866;2022-09-09T10:44:51;4.75;;;1.02;;
26181;SDS011;13927;51.534;11.866;2022-09-09T10:50:46;5.43;;;1.50;;
26181;SDS011;13927;51.534;11.866;2022-09-09T10:53:35;3.70;;;1.35;;
26181;SDS011;13927;51.534;11.866;2022-09-09T10:56:10;3.38;;;1.02;;
26181;SDS011;13927;51.534;11.866;2022-09-09T10:58:46;2.13;;;1.00;;
26181;SDS011;13927;51.534;11.866;2022-09-09T11:01:19;2.40;;;1.05;;
26181;SDS011;13927;51.534;11.866;2022-09-09T11:07:34;6.13;;;1.30;;
26181;SDS011;13927;51.534;11.866;2022-09-09T11:10:11;5.03;;;1.13;;
26181;SDS011;13927;51.534;11.866;2022-09-09T11:13:13;3.45;;;1.00;;
26181;SDS011;13927;51.534;11.866;2022-09-09T11:25:22;6.13;;;1.10;;
26181;SDS011;13927;51.534;11.866;2022-09-09T11:28:10;2.65;;;1.00;;
26181;SDS011;13927;51.534;11.866;2022-09-09T11:33:29;5.15;;;1.38;;
26181;SDS011;13927;51.534;11.866;2022-09-09T11:39:24;4.33;;;1.33;;
26181;SDS011;13927;51.534;11.866;2022-09-09T11:42:23;3.88;;;0.80;;
26181;SDS011;13927;51.534;11.866;2022-09-09T11:44:49;2.72;;;0.80;;
26181;SDS011;13927;51.534;11.866;2022-09-09T11:47:19;3.55;;;0.90;;
26181;SDS011;13927;51.534;11.866;2022-09-09T11:52:44;4.45;;;1.08;;
26181;SDS011;13927;51.534;11.866;2022-09-09T11:55:27;2.72;;;0.90;;
26181;SDS011;13927;51.534;11.866;2022-09-09T11:57:58;3.72;;;0.90;;
26181;SDS011;13927;51.534;11.866;2022-09-09T12:00:36;2.78;;;0.90;;
26181;SDS011;13927;51.534;11.866;2022-09-09T12:03:31;2.22;;;0.95;;
26181;SDS011;13927;51.534;11.866;2022-09-09T12:06:41;3.03;;;0.88;;
26181;SDS011;13927;51.534;11.866;2022-09-09T12:09:21;5.88;;;1.30;;
26181;SDS011;13927;51.534;11.866;2022-09-09T12:12:04;2.70;;;0.70;;
26181;SDS011;13927;51.534;11.866;2022-09-09T12:14:42;2.78;;;1.13;;
26181;SDS011;13927;51.534;11.866;2022-09-09T12:17:24;4.25;;;1.38;;
26181;SDS011;13927;51.534;11.866;2022-09-09T12:20:10;3.47;;;1.60;;
26181;SDS011;13927;51.534;11.866;2022-09-09T12:26:05;4.90;;;1.38;;
26181;SDS011;13927;51.534;11.866;2022-09-09T12:28:56;2.83;;;0.77;;
26181;SDS011;13927;51.534;11.866;2022-09-09T12:34:38;3.28;;;1.02;;
26181;SDS011;13927;51.534;11.866;2022-09-09T12:37:21;4.65;;;1.15;;
26181;SDS011;13927;51.534;11.866;2022-09-09T12:40:24;3.03;;;1.35;;
26181;SDS011;13927;51.534;11.866;2022-09-09T12:43:20;5.28;;;0.95;;
26181;SDS011;13927;51.534;11.866;2022-09-09T12:45:49;4.78;;;1.08;;
26181;SDS011;13927;51.534;11.866;2022-09-09T12:48:22;2.65;;;0.90;;
26181;SDS011;13927;51.534;11.866;2022-09-09T12:51:27;4.07;;;1.10;;
26181;SDS011;13927;51.534;11.866;2022-09-09T12:53:55;4.05;;;1.00;;
26181;SDS011;13927;51.534;11.866;2022-09-09T12:56:26;3.92;;;0.80;;
26181;SDS011;13927;51.534;11.866;2022-09-09T12:58:55;3.65;;;1.10;;
26181;SDS011;13927;51.534;11.866;2022-09-09T13:03:51;3.45;;;1.00;;
26181;SDS011;13927;51.534;11.866;2022-09-09T13:06:25;2.10;;;0.77;;
26181;SDS011;13927;51.534;11.866;2022-09-09T13:08:54;3.30;;;1.20;;
26181;SDS011;13927;51.534;11.866;2022-09-09T13:11:23;4.53;;;1.55;;
26181;SDS011;13927;51.534;11.866;2022-09-09T13:13:53;2.58;;;0.85;;
26181;SDS011;13927;51.534;11.866;2022-09-09T13:18:50;1.65;;;0.77;;
26181;SDS011;13927;51.534;11.866;2022-09-09T13:21:35;2.63;;;0.85;;
26181;SDS011;13927;51.534;11.866;2022-09-09T13:24:19;2.30;;;1.05;;
26181;SDS011;13927;51.534;11.866;2022-09-09T13:27:01;2.65;;;1.10;;
26181;SDS011;13927;51.534;11.866;2022-09-09T13:29:56;3.35;;;0.98;;
26181;SDS011;13927;51.534;11.866;2022-09-09T13:32:22;1.45;;;0.70;;
26181;SDS011;13927;51.534;11.866;2022-09-09T13:34:55;3.78;;;1.20;;
26181;SDS011;13927;51.534;11.866;2022-09-09T13:37:38;4.88;;;1.40;;
26181;SDS011;13927;51.534;11.866;2022-09-09T13:40:18;3.00;;;1.00;;
26181;SDS011;13927;51.534;11.866;2022-09-09T13:42:46;3.63;;;1.20;;
26181;SDS011;13927;51.534;11.866;2022-09-09T13:45:21;4.50;;;1.55;;
26181;SDS011;13927;51.534;11.866;2022-09-09T13:47:51;3.45;;;1.00;;
26181;SDS011;13927;51.534;11.866;2022-09-09T13:50:29;2.13;;;1.05;;
26181;SDS011;13927;51.534;11.866;2022-09-09T13:52:59;4.00;;;0.85;;
26181;SDS011;13927;51.534;11.866;2022-09-09T13:55:25;2.42;;;0.75;;
26181;SDS011;13927;51.534;11.866;2022-09-09T13:57:57;3.85;;;1.50;;
26181;SDS011;13927;51.534;11.866;2022-09-09T14:00:32;3.90;;;0.90;;
26181;SDS011;13927;51.534;11.866;2022-09-09T14:02:59;4.88;;;1.33;;
26181;SDS011;13927;51.534;11.866;2022-09-09T14:05:27;2.67;;;0.88;;
26181;SDS011;13927;51.534;11.866;2022-09-09T14:07:53;4.70;;;1.13;;
26181;SDS011;13927;51.534;11.866;2022-09-09T14:10:19;1.80;;;0.80;;
26181;SDS011;13927;51.534;11.866;2022-09-09T14:12:46;3.33;;;0.93;;
26181;SDS011;13927;51.534;11.866;2022-09-09T14:15:12;3.63;;;1.23;;
26181;SDS011;13927;51.534;11.866;2022-09-09T14:17:40;2.38;;;0.90;;
26181;SDS011;13927;51.534;11.866;2022-09-09T14:20:07;3.15;;;1.00;;
26181;SDS011;13927;51.534;11.866;2022-09-09T14:22:34;1.90;;;0.65;;
26181;SDS011;13927;51.534;11.866;2022-09-09T14:25:01;3.92;;;1.00;;
26181;SDS011;13927;51.534;11.866;2022-09-09T14:27:27;2.22;;;0.88;;
26181;SDS011;13927;51.534;11.866;2022-09-09T14:29:59;3.30;;;0.95;;
26181;SDS011;13927;51.534;11.866;2022-09-09T14:32:31;2.53;;;0.70;;
26181;SDS011;13927;51.534;11.866;2022-09-09T14:34:58;3.00;;;0.83;;
26181;SDS011;13927;51.534;11.866;2022-09-09T14:37:23;1.52;;;0.65;;
26181;SDS011;13927;51.534;11.866;2022-09-09T14:39:49;3.90;;;0.68;;
26181;SDS011;13927;51.534;11.866;2022-09-09T14:42:15;2.45;;;0.80;;
26181;SDS011;13927;51.534;11.866;2022-09-09T14:44:43;2.17;;;0.60;;
26181;SDS011;13927;51.534;11.866;2022-09-09T14:47:08;1.77;;;0.60;;
26181;SDS011;13927;51.534;11.866;2022-09-09T14:49:34;2.00;;;0.60;;
26181;SDS011;13927;51.534;11.866;2022-09-09T14:52:00;1.95;;;0.88;;
26181;SDS011;13927;51.534;11.866;2022-09-09T14:54:27;2.17;;;0.65;;
26181;SDS011;13927;51.534;11.866;2022-09-09T14:56:53;1.10;;;0.60;;
26181;SDS011;13927;51.534;11.866;2022-09-09T14:59:19;2.35;;;0.57;;
26181;SDS011;13927;51.534;11.866;2022-09-09T15:01:44;1.27;;;0.47;;
26181;SDS011;13927;51.534;11.866;2022-09-09T15:04:11;1.60;;;0.65;;
26181;SDS011;13927;51.534;11.866;2022-09-09T15:06:39;0.88;;;0.43;;
26181;SDS011;13927;51.534;11.866;2022-09-09T15:09:07;2.17;;;0.90;;
26181;SDS011;13927;51.534;11.866;2022-09-09T15:11:34;1.85;;;0.60;;
26181;SDS011;13927;51.534;11.866;2022-09-09T15:14:03;1.40;;;0.43;;
26181;SDS011;13927;51.534;11.866;2022-09-09T15:16:30;2.50;;;0.57;;
26181;SDS011;13927;51.534;11.866;2022-09-09T15:18:57;2.00;;;0.70;;
26181;SDS011;13927;51.534;11.866;2022-09-09T15:21:26;2.17;;;0.80;;
26181;SDS011;13927;51.534;11.866;2022-09-09T15:23:55;0.82;;;0.52;;
26181;SDS011;13927;51.534;11.866;2022-09-09T15:26:22;2.22;;;0.68;;
26181;SDS011;13927;51.534;11.866;2022-09-09T15:28:48;2.08;;;0.80;;
26181;SDS011;13927;51.534;11.866;2022-09-09T15:31:17;2.55;;;0.55;;
26181;SDS011;13927;51.534;11.866;2022-09-09T15:33:57;3.40;;;0.65;;
26181;SDS011;13927;51.534;11.866;2022-09-09T15:36:29;1.45;;;0.52;;
26181;SDS011;13927;51.534;11.866;2022-09-09T15:39:14;1.63;;;0.50;;
26181;SDS011;13927;51.534;11.866;2022-09-09T15:41:42;4.03;;;0.60;;
26181;SDS011;13927;51.534;11.866;2022-09-09T15:44:09;1.48;;;0.47;;
26181;SDS011;13927;51.534;11.866;2022-09-09T15:49:15;1.73;;;0.65;;
26181;SDS011;13927;51.534;11.866;2022-09-09T15:51:56;1.55;;;0.50;;
26181;SDS011;13927;51.534;11.866;2022-09-09T15:54:33;1.75;;;0.60;;
26181;SDS011;13927;51.534;11.866;2022-09-09T15:57:02;1.63;;;0.57;;
26181;SDS011;13927;51.534;11.866;2022-09-09T15:59:30;1.70;;;0.68;;
26181;SDS011;13927;51.534;11.866;2022-09-09T16:01:58;3.42;;;0.63;;
26181;SDS011;13927;51.534;11.866;2022-09-09T16:04:25;2.00;;;0.63;;
26181;SDS011;13927;51.534;11.866;2022-09-09T16:06:58;2.88;;;0.60;;
26181;SDS011;13927;51.534;11.866;2022-09-09T16:09:30;1.95;;;1.02;;
26181;SDS011;13927;51.534;11.866;2022-09-09T16:11:57;2.00;;;0.60;;
26181;SDS011;13927;51.534;11.866;2022-09-09T16:14:31;1.30;;;0.60;;
26181;SDS011;13927;51.534;11.866;2022-09-09T16:17:00;2.00;;;0.80;;
26181;SDS011;13927;51.534;11.866;2022-09-09T16:19:28;1.75;;;0.70;;
26181;SDS011;13927;51.534;11.866;2022-09-09T16:21:53;1.65;;;1.00;;
26181;SDS011;13927;51.534;11.866;2022-09-09T16:24:19;1.40;;;0.52;;
26181;SDS011;13927;51.534;11.866;2022-09-09T16:26:51;2.47;;;0.60;;
26181;SDS011;13927;51.534;11.866;2022-09-09T16:29:19;2.38;;;0.63;;
26181;SDS011;13927;51.534;11.866;2022-09-09T16:31:52;2.17;;;0.70;;
26181;SDS011;13927;51.534;11.866;2022-09-09T16:34:18;1.30;;;0.57;;
26181;SDS011;13927;51.534;11.866;2022-09-09T16:36:45;0.77;;;0.40;;
26181;SDS011;13927;51.534;11.866;2022-09-09T16:39:16;2.03;;;0.75;;
26181;SDS011;13927;51.534;11.866;2022-09-09T16:41:43;5.65;;;0.70;;
26181;SDS011;13927;51.534;11.866;2022-09-09T16:44:10;3.08;;;0.57;;
26181;SDS011;13927;51.534;11.866;2022-09-09T16:46:38;2.40;;;0.43;;
26181;SDS011;13927;51.534;11.866;2022-09-09T16:49:07;3.55;;;0.80;;
26181;SDS011;13927;51.534;11.866;2022-09-09T16:51:41;3.33;;;0.88;;
26181;SDS011;13927;51.534;11.866;2022-09-09T16:54:10;2.08;;;0.90;;
26181;SDS011;13927;51.534;11.866;2022-09-09T16:56:37;2.47;;;0.60;;
26181;SDS011;13927;51.534;11.866;2022-09-09T16:59:09;3.67;;;0.90;;
26181;SDS011;13927;51.534;11.866;2022-09-09T17:01:43;4.25;;;0.90;;
26181;SDS011;13927;51.534;11.866;2022-09-09T17:04:18;2.50;;;0.70;;
26181;SDS011;13927;51.534;11.866;2022-09-09T17:06:49;3.35;;;0.80;;
26181;SDS011;13927;51.534;11.866;2022-09-09T17:09:19;1.80;;;0.60;;
26181;SDS011;13927;51.534;11.866;2022-09-09T17:11:47;3.75;;;0.70;;
26181;SDS011;13927;51.534;11.866;2022-09-09T17:14:17;2.42;;;0.60;;
26181;SDS011;13927;51.534;11.866;2022-09-09T17:16:44;2.42;;;0.50;;
26181;SDS011;13927;51.534;11.866;2022-09-09T17:19:13;3.78;;;0.80;;
26181;SDS011;13927;51.534;11.866;2022-09-09T17:21:39;1.63;;;0.50;;
26181;SDS011;13927;51.534;11.866;2022-09-09T17:24:05;1.33;;;0.50;;
26181;SDS011;13927;51.534;11.866;2022-09-09T17:26:32;2.75;;;0.70;;
26181;SDS011;13927;51.534;11.866;2022-09-09T17:28:58;2.97;;;0.80;;
26181;SDS011;13927;51.534;11.866;2022-09-09T17:31:26;2.05;;;0.55;;
26181;SDS011;13927;51.534;11.866;2022-09-09T17:33:54;3.45;;;0.70;;
26181;SDS011;13927;51.534;11.866;2022-09-09T17:36:38;3.38;;;0.60;;
26181;SDS011;13927;51.534;11.866;2022-09-09T17:39:05;2.47;;;0.60;;
26181;SDS011;13927;51.534;11.866;2022-09-09T17:41:33;2.08;;;0.50;;
26181;SDS011;13927;51.534;11.866;2022-09-09T17:44:01;1.88;;;0.63;;
26181;SDS011;13927;51.534;11.866;2022-09-09T17:46:32;1.92;;;0.65;;
26181;SDS011;13927;51.534;11.866;2022-09-09T17:49:02;1.63;;;0.83;;
26181;SDS011;13927;51.534;11.866;2022-09-09T17:51:31;3.85;;;1.00;;
26181;SDS011;13927;51.534;11.866;2022-09-09T17:54:00;2.38;;;1.10;;
26181;SDS011;13927;51.534;11.866;2022-09-09T17:56:33;3.47;;;0.77;;
26181;SDS011;13927;51.534;11.866;2022-09-09T17:59:01;3.78;;;1.00;;
26181;SDS011;13927;51.534;11.866;2022-09-09T18:01:30;1.90;;;0.73;;
26181;SDS011;13927;51.534;11.866;2022-09-09T18:06:33;3.33;;;1.23;;
26181;SDS011;13927;51.534;11.866;2022-09-09T18:09:08;1.38;;;0.50;;
26181;SDS011;13927;51.534;11.866;2022-09-09T18:11:38;1.80;;;0.65;;
26181;SDS011;13927;51.534;11.866;2022-09-09T18:14:08;3.95;;;0.57;;
26181;SDS011;13927;51.534;11.866;2022-09-09T18:16:40;2.83;;;0.93;;
26181;SDS011;13927;51.534;11.866;2022-09-09T18:19:08;5.68;;;0.80;;
26181;SDS011;13927;51.534;11.866;2022-09-09T18:21:37;3.78;;;0.90;;
26181;SDS011;13927;51.534;11.866;2022-09-09T18:24:05;2.78;;;0.60;;
26181;SDS011;13927;51.534;11.866;2022-09-09T18:26:35;2.35;;;0.88;;
26181;SDS011;13927;51.534;11.866;2022-09-09T18:29:05;3.47;;;1.02;;